Time;durP1;ratioP1;P1;durP2;ratioP2;P2;SDS_P1;SDS_P2;PMS_P1;PMS_P2;Temp;Humidity;BMP_temperature;BMP_pressure;BME280_temperature;BME280_humidity;BME280_pressure;Samples;Min_cycle;Max_cycle;Signal;HPM_P1;HPM_P2
2021/04/08 00:01:51;;;;;;;16.87;8.33;;;2.00;99.90;;;;;;6246919;22;20053;-68
2021/04/08 00:04:17;;;;;;;13.53;8.50;;;2.00;99.90;;;;;;6246406;22;20000;-68
2021/04/08 00:06:43;;;;;;;17.77;8.53;;;2.00;99.90;;;;;;6246775;22;20000;-68
2021/04/08 00:09:09;;;;;;;15.17;8.00;;;2.00;99.90;;;;;;6245070;23;20126;-68
2021/04/08 00:11:35;;;;;;;14.20;8.00;;;2.00;99.90;;;;;;6246812;22;20000;-67
2021/04/08 00:14:01;;;;;;;14.57;8.97;;;2.00;99.90;;;;;;6246890;22;20011;-69
2021/04/08 00:16:27;;;;;;;17.73;8.83;;;2.00;99.90;;;;;;6245142;23;19996;-68
2021/04/08 00:18:53;;;;;;;15.53;8.50;;;2.00;99.90;;;;;;6246832;22;20004;-68
2021/04/08 00:21:18;;;;;;;13.03;7.53;;;1.90;99.90;;;;;;6246921;22;20310;-68
2021/04/08 00:23:45;;;;;;;16.77;8.57;;;;;;;;;;6246196;22;20016;-69
2021/04/08 00:26:11;;;;;;;16.20;8.70;;;1.90;99.90;;;;;;6245126;23;20008;-68
2021/04/08 00:28:37;;;;;;;15.77;8.40;;;1.90;99.90;;;;;;6246699;22;20313;-67
2021/04/08 00:31:03;;;;;;;18.80;9.27;;;1.80;99.90;;;;;;6246779;22;20054;-68
2021/04/08 00:33:29;;;;;;;14.00;8.97;;;1.80;99.90;;;;;;6246795;22;20425;-67
2021/04/08 00:35:55;;;;;;;18.70;9.87;;;1.80;99.90;;;;;;6245111;23;20003;-67
2021/04/08 00:38:21;;;;;;;20.03;9.60;;;1.70;99.90;;;;;;6246554;22;20059;-67
2021/04/08 00:40:47;;;;;;;18.80;10.37;;;1.70;99.90;;;;;;6246863;22;20003;-69
2021/04/08 00:43:13;;;;;;;17.13;9.67;;;1.70;99.90;;;;;;6246466;23;20006;-68
2021/04/08 00:45:39;;;;;;;16.37;9.80;;;1.60;99.90;;;;;;6246595;22;19997;-66
2021/04/08 00:48:05;;;;;;;14.80;8.67;;;1.60;99.90;;;;;;6244680;23;20054;-67
2021/04/08 00:50:32;;;;;;;15.80;9.60;;;1.60;99.90;;;;;;6245012;23;20016;-68
2021/04/08 00:53:05;;;;;;;14.73;9.23;;;1.50;99.90;;;;;;6246594;22;20026;-67
2021/04/08 00:55:42;;;;;;;18.33;9.03;;;1.50;99.90;;;;;;6246752;22;20079;-67
2021/04/08 00:58:08;;;;;;;17.23;9.47;;;1.50;99.90;;;;;;6244993;23;19996;-68
2021/04/08 01:00:38;;;;;;;16.67;9.50;;;1.50;99.90;;;;;;6244893;23;20087;-68
2021/04/08 01:03:05;;;;;;;19.03;9.10;;;1.40;99.90;;;;;;6247340;22;20000;-66
2021/04/08 01:05:31;;;;;;;19.77;9.97;;;1.40;99.90;;;;;;6246760;23;20012;-69
2021/04/08 01:07:57;;;;;;;16.73;9.50;;;1.40;99.90;;;;;;6248462;22;20075;-67
2021/04/08 01:10:24;;;;;;;21.63;10.10;;;1.30;99.90;;;;;;6248422;22;19992;-68
2021/04/08 01:12:52;;;;;;;15.80;9.70;;;1.30;99.90;;;;;;6248346;22;20007;-67
2021/04/08 01:15:18;;;;;;;21.73;10.93;;;1.30;99.90;;;;;;6247941;22;20095;-67
2021/04/08 01:18:07;;;;;;;19.20;10.43;;;1.20;99.90;;;;;;6247994;23;19996;-67
2021/04/08 01:21:01;;;;;;;20.97;9.77;;;1.30;99.90;;;;;;6248220;23;20000;-68
2021/04/08 01:23:32;;;;;;;20.77;11.63;;;1.20;99.90;;;;;;6247894;23;20001;-66
2021/04/08 01:26:52;;;;;;;22.58;11.35;;;1.20;99.90;;;;;;6246683;23;20004;-67
2021/04/08 01:29:33;;;;;;;22.90;9.80;;;1.10;99.90;;;;;;6155167;23;20009;-68
2021/04/08 01:32:04;;;;;;;19.23;10.47;;;1.10;99.90;;;;;;6233457;23;20007;-66
2021/04/08 01:34:33;;;;;;;20.13;11.02;;;1.10;99.90;;;;;;6246653;23;20066;-68
2021/04/08 01:37:03;;;;;;;17.30;9.83;;;1.10;99.90;;;;;;6248152;23;20075;-67
2021/04/08 01:39:31;;;;;;;15.73;10.03;;;1.10;99.90;;;;;;6246461;23;20000;-67
2021/04/08 01:41:58;;;;;;;18.03;10.63;;;1.00;99.90;;;;;;6246516;23;20433;-66
2021/04/08 01:44:25;;;;;;;18.63;10.13;;;1.00;99.90;;;;;;6246588;23;20027;-68
2021/04/08 01:47:04;;;;;;;21.57;11.00;;;1.00;99.90;;;;;;6246440;23;20377;-67
2021/04/08 01:49:33;;;;;;;18.27;10.40;;;1.00;99.90;;;;;;6248219;23;20063;-68
2021/04/08 01:52:00;;;;;;;16.63;10.17;;;1.00;99.90;;;;;;6248093;23;20000;-67
2021/04/08 01:54:29;;;;;;;21.57;10.70;;;1.00;99.90;;;;;;6248203;23;20000;-68
2021/04/08 01:57:05;;;;;;;19.03;10.87;;;0.90;99.90;;;;;;6248069;23;20054;-68
2021/04/08 01:59:31;;;;;;;18.33;10.73;;;0.90;99.90;;;;;;6247960;23;20004;-67
2021/04/08 02:01:59;;;;;;;19.57;10.30;;;0.90;99.90;;;;;;6247989;22;19996;-67
2021/04/08 02:04:26;;;;;;;19.77;11.07;;;0.90;99.90;;;;;;6247803;23;20433;-68
2021/04/08 02:06:53;;;;;;;21.40;11.83;;;0.90;99.90;;;;;;6247469;23;20337;-67
2021/04/08 02:09:22;;;;;;;21.77;11.60;;;0.80;99.90;;;;;;6247494;23;20008;-67
2021/04/08 02:11:48;;;;;;;21.40;11.83;;;0.80;99.90;;;;;;6247916;23;19996;-68
2021/04/08 02:14:16;;;;;;;24.30;12.63;;;0.80;99.90;;;;;;6246060;23;20004;-68
2021/04/08 02:16:46;;;;;;;25.20;11.77;;;0.70;99.90;;;;;;6247759;23;20006;-67
2021/04/08 02:19:13;;;;;;;22.63;12.30;;;0.70;99.90;;;;;;6246032;23;19996;-66
2021/04/08 02:21:41;;;;;;;21.20;12.37;;;0.70;99.90;;;;;;6247734;23;19997;-67
2021/04/08 02:24:09;;;;;;;25.53;13.70;;;0.70;99.90;;;;;;6247330;23;20012;-66
2021/04/08 02:26:38;;;;;;;28.17;12.70;;;0.70;99.90;;;;;;6247609;23;20000;-67
2021/04/08 02:29:05;;;;;;;22.80;13.67;;;0.70;99.90;;;;;;6246024;23;20000;-68
2021/04/08 02:31:36;;;;;;;31.10;14.37;;;0.70;99.90;;;;;;6246065;23;20004;-68
2021/04/08 02:34:02;;;;;;;22.90;12.98;;;0.60;99.90;;;;;;6247851;23;20007;-68
2021/04/08 02:36:28;;;;;;;27.03;12.67;;;0.60;99.90;;;;;;6247592;23;20000;-69
2021/04/08 02:38:54;;;;;;;24.50;11.70;;;0.60;99.90;;;;;;6247578;23;20030;-68
2021/04/08 02:41:20;;;;;;;21.87;11.37;;;0.60;99.90;;;;;;6246074;23;20000;-67
2021/04/08 02:43:46;;;;;;;20.03;12.07;;;0.60;99.90;;;;;;6247403;23;20321;-68
2021/04/08 02:46:12;;;;;;;24.13;12.53;;;0.70;99.90;;;;;;6247130;23;20071;-66
2021/04/08 02:48:38;;;;;;;24.40;12.40;;;0.60;99.90;;;;;;6247615;23;20346;-66
2021/04/08 02:51:12;;;;;;;20.50;11.73;;;0.60;99.90;;;;;;6247396;23;20019;-66
2021/04/08 02:53:46;;;;;;;19.87;11.47;;;0.60;99.90;;;;;;6245746;23;20007;-69
2021/04/08 02:56:43;;;;;;;24.73;11.33;;;0.60;99.90;;;;;;6245846;23;19996;-69
2021/04/08 02:59:23;;;;;;;22.03;12.20;;;0.60;99.90;;;;;;6245712;23;20464;-67
2021/04/08 03:02:00;;;;;;;26.57;12.90;;;0.60;99.90;;;;;;6247502;23;20070;-68
2021/04/08 03:04:27;;;;;;;22.53;12.87;;;0.60;99.90;;;;;;6247426;23;20003;-68
2021/04/08 03:06:54;;;;;;;26.07;13.80;;;0.60;99.90;;;;;;6245680;23;20079;-69
2021/04/08 03:09:45;;;;;;;28.53;12.97;;;0.60;99.90;;;;;;6247255;23;19996;-68
2021/04/08 03:12:15;;;;;;;23.88;12.57;;;0.60;99.90;;;;;;6244974;23;20510;-68
2021/04/08 03:14:56;;;;;;;21.00;11.53;;;0.70;99.90;;;;;;6247235;23;20027;-69
2021/04/08 03:17:25;;;;;;;18.70;10.45;;;0.60;99.90;;;;;;6245639;23;20000;-67
2021/04/08 03:19:54;;;;;;;26.70;12.70;;;0.70;99.90;;;;;;6247074;23;20001;-70
2021/04/08 03:22:58;;;;;;;26.90;13.37;;;0.70;99.90;;;;;;6246267;23;20325;-69
2021/04/08 03:25:24;;;;;;;21.57;10.73;;;0.70;99.90;;;;;;6246322;23;20031;-70
2021/04/08 03:27:51;;;;;;;27.57;13.23;;;0.60;99.90;;;;;;6246924;23;20034;-69
2021/04/08 03:30:17;;;;;;;30.57;15.93;;;0.60;99.90;;;;;;6247003;23;20000;-68
2021/04/08 03:32:43;;;;;;;34.17;17.70;;;0.60;99.90;;;;;;6245377;23;20007;-67
2021/04/08 03:35:12;;;;;;;36.30;18.03;;;0.50;99.90;;;;;;6246969;23;20082;-67
2021/04/08 03:37:39;;;;;;;36.10;17.67;;;0.50;99.90;;;;;;6246931;23;20058;-68
2021/04/08 03:40:07;;;;;;;35.47;18.13;;;0.50;99.90;;;;;;6245646;23;20004;-70
2021/04/08 03:42:34;;;;;;;41.73;19.73;;;0.50;99.90;;;;;;6247043;23;20074;-69
2021/04/08 03:45:00;;;;;;;36.07;17.63;;;0.50;99.90;;;;;;6246833;23;20008;-69
2021/04/08 03:47:27;;;;;;;31.33;16.03;;;0.60;99.90;;;;;;6246847;23;19996;-67
2021/04/08 03:49:54;;;;;;;32.73;16.03;;;0.60;99.90;;;;;;6246884;23;20000;-69
2021/04/08 03:52:21;;;;;;;34.43;17.07;;;0.50;99.90;;;;;;6247106;23;20008;-69
2021/04/08 03:54:51;;;;;;;38.63;17.53;;;0.60;99.90;;;;;;6246627;23;20079;-67
2021/04/08 03:57:20;;;;;;;27.83;15.10;;;0.50;99.90;;;;;;6246860;23;20020;-67
2021/04/08 03:59:47;;;;;;;34.30;16.10;;;0.60;99.90;;;;;;6245236;23;20028;-70
2021/04/08 04:02:17;;;;;;;35.93;16.90;;;0.60;99.90;;;;;;6247059;23;20054;-70
2021/04/08 04:04:44;;;;;;;36.47;16.03;;;0.60;99.90;;;;;;6246646;23;20000;-69
2021/04/08 04:07:10;;;;;;;35.90;16.83;;;0.60;99.90;;;;;;6245205;23;20004;-69
2021/04/08 04:09:37;;;;;;;35.70;18.33;;;0.60;99.90;;;;;;6246780;23;19992;-67
2021/04/08 04:12:04;;;;;;;34.90;18.47;;;0.60;99.90;;;;;;6245201;23;20078;-70
2021/04/08 04:14:31;;;;;;;35.90;18.60;;;0.50;99.90;;;;;;6245833;23;20000;-67
2021/04/08 04:16:59;;;;;;;31.97;18.17;;;0.50;99.90;;;;;;6246573;23;20046;-69
2021/04/08 04:19:26;;;;;;;31.83;16.10;;;0.60;99.90;;;;;;6246373;23;20332;-70
2021/04/08 04:21:55;;;;;;;27.77;14.40;;;0.60;99.90;;;;;;6246689;23;19992;-68
2021/04/08 04:24:21;;;;;;;25.60;15.77;;;0.60;99.90;;;;;;6245934;23;20368;-69
2021/04/08 04:26:47;;;;;;;34.80;18.57;;;0.60;99.90;;;;;;6245108;23;20050;-70
2021/04/08 04:29:13;;;;;;;52.73;31.57;;;0.70;99.90;;;;;;6246622;23;20020;-68
2021/04/08 04:31:39;;;;;;;44.13;28.83;;;0.70;99.90;;;;;;6246675;23;19997;-68
2021/04/08 04:34:06;;;;;;;53.47;34.50;;;0.70;99.90;;;;;;6246542;23;20007;-66
2021/04/08 04:36:33;;;;;;;73.50;44.77;;;0.80;99.90;;;;;;6246619;23;19992;-68
2021/04/08 04:38:59;;;;;;;30.30;15.87;;;0.80;99.90;;;;;;6247070;23;20004;-66
2021/04/08 04:41:25;;;;;;;52.63;29.80;;;0.90;99.90;;;;;;6247070;23;20360;-68
2021/04/08 04:43:51;;;;;;;116.17;55.27;;;0.90;99.90;;;;;;6247119;23;20034;-68
2021/04/08 04:46:17;;;;;;;97.83;49.27;;;1.00;99.90;;;;;;6248662;22;20028;-67
2021/04/08 04:48:42;;;;;;;69.97;36.73;;;1.00;99.90;;;;;;6246943;23;20000;-66
2021/04/08 04:51:09;;;;;;;72.17;36.43;;;1.00;99.90;;;;;;6248498;23;19999;-66
2021/04/08 04:53:35;;;;;;;74.57;34.00;;;1.00;99.90;;;;;;6248551;23;19992;-66
2021/04/08 04:56:01;;;;;;;182.47;70.77;;;1.00;99.90;;;;;;6248437;23;19993;-67
2021/04/08 04:58:27;;;;;;;76.73;31.87;;;1.10;99.90;;;;;;6248535;23;20001;-67
2021/04/08 05:00:53;;;;;;;53.47;26.37;;;1.10;99.90;;;;;;6248446;23;20448;-68
2021/04/08 05:03:19;;;;;;;55.80;24.90;;;1.20;99.90;;;;;;6248518;23;20097;-68
2021/04/08 05:05:44;;;;;;;41.93;20.43;;;1.20;99.90;;;;;;6247228;23;20004;-67
2021/04/08 05:08:10;;;;;;;60.60;29.93;;;1.20;99.90;;;;;;6246737;23;20008;-67
2021/04/08 05:10:36;;;;;;;46.90;24.73;;;1.30;99.90;;;;;;6246782;23;20320;-70
2021/04/08 05:13:02;;;;;;;42.37;21.03;;;1.30;99.90;;;;;;6248366;23;20007;-69
2021/04/08 05:15:28;;;;;;;39.73;20.10;;;1.30;99.90;;;;;;6248071;23;20498;-71
2021/04/08 05:17:54;;;;;;;32.67;17.07;;;1.40;99.90;;;;;;6246684;23;19996;-68
2021/04/08 05:20:20;;;;;;;34.80;18.47;;;1.50;99.90;;;;;;6248273;23;20057;-67
2021/04/08 05:22:45;;;;;;;35.70;17.63;;;1.60;99.90;;;;;;6246622;23;20429;-68
2021/04/08 05:25:12;;;;;;;37.70;17.97;;;1.70;99.90;;;;;;6247774;23;20015;-69
2021/04/08 05:27:38;;;;;;;37.80;17.17;;;1.70;99.90;;;;;;6246715;23;20004;-67
2021/04/08 05:30:04;;;;;;;32.17;14.53;;;1.80;99.90;;;;;;6247738;23;20038;-67
2021/04/08 05:32:30;;;;;;;28.60;14.03;;;1.90;99.90;;;;;;6246383;23;20079;-69
2021/04/08 05:34:56;;;;;;;36.23;19.83;;;2.00;99.60;;;;;;6248031;23;20030;-68
2021/04/08 05:37:22;;;;;;;32.63;18.43;;;2.10;99.20;;;;;;6247405;23;19996;-68
2021/04/08 05:39:48;;;;;;;38.50;18.57;;;2.20;99.30;;;;;;6247814;23;20122;-68
2021/04/08 05:42:14;;;;;;;62.37;23.60;;;2.30;99.10;;;;;;6247849;23;20000;-67
2021/04/08 05:44:39;;;;;;;50.83;20.67;;;2.40;99.20;;;;;;6246257;23;20005;-68
2021/04/08 05:47:05;;;;;;;45.47;19.57;;;2.40;99.40;;;;;;6246293;23;20006;-69
2021/04/08 05:49:31;;;;;;;45.23;21.10;;;2.50;99.30;;;;;;6247466;23;20067;-69
2021/04/08 05:51:57;;;;;;;36.17;17.63;;;2.60;99.50;;;;;;6247894;23;20039;-69
2021/04/08 05:54:23;;;;;;;41.77;21.47;;;2.70;98.40;;;;;;6248026;23;19996;-67
2021/04/08 05:56:49;;;;;;;44.90;19.80;;;2.80;99.70;;;;;;6246222;23;20004;-69
2021/04/08 05:59:14;;;;;;;46.20;19.90;;;2.90;99.10;;;;;;6245816;23;20000;-67
2021/04/08 06:01:40;;;;;;;44.27;21.10;;;3.00;99.10;;;;;;6247739;23;20046;-67
2021/04/08 06:04:06;;;;;;;43.53;20.87;;;3.10;98.30;;;;;;6248041;23;20010;-70
2021/04/08 06:06:32;;;;;;;48.37;22.77;;;3.20;98.50;;;;;;6247602;23;20001;-69
2021/04/08 06:08:58;;;;;;;27.33;15.80;;;3.30;98.50;;;;;;6247773;23;20047;-70
2021/04/08 06:11:24;;;;;;;29.73;12.73;;;3.50;98.80;;;;;;6247371;23;20000;-68
2021/04/08 06:13:51;;;;;;;26.07;11.30;;;3.60;96.10;;;;;;6247802;23;20086;-72
2021/04/08 06:16:17;;;;;;;18.67;10.93;;;3.70;95.90;;;;;;6245771;23;20001;-69
2021/04/08 06:18:43;;;;;;;25.67;10.77;;;3.90;95.00;;;;;;6246115;23;20007;-71
2021/04/08 06:21:09;;;;;;;22.37;11.60;;;;;;;;;;6247710;23;20004;-68
2021/04/08 06:23:35;;;;;;;26.73;13.70;;;4.00;95.10;;;;;;6245999;23;20023;-70
2021/04/08 06:26:01;;;;;;;31.67;13.30;;;4.10;94.00;;;;;;6246620;23;20356;-67
2021/04/08 06:28:27;;;;;;;21.87;11.03;;;4.20;94.30;;;;;;6246841;23;20481;-69
2021/04/08 06:30:53;;;;;;;29.33;12.90;;;4.20;94.10;;;;;;6247502;23;20000;-69
2021/04/08 06:33:19;;;;;;;19.70;11.63;;;4.30;94.10;;;;;;6247641;23;20000;-71
2021/04/08 06:35:45;;;;;;;22.43;12.73;;;4.30;93.80;;;;;;6245715;23;20000;-70
2021/04/08 06:38:11;;;;;;;20.30;10.23;;;4.40;95.00;;;;;;6245839;23;20004;-69
2021/04/08 06:40:37;;;;;;;19.70;9.87;;;4.40;92.70;;;;;;6247501;23;19996;-70
2021/04/08 06:43:03;;;;;;;17.40;8.93;;;4.40;91.20;;;;;;6247423;22;20050;-70
2021/04/08 06:45:32;;;;;;;17.17;8.40;;;4.40;92.30;;;;;;6247183;22;20008;-70
2021/04/08 06:48:30;;;;;;;15.97;9.67;;;4.50;91.90;;;;;;6247413;22;20001;-70
2021/04/08 06:50:56;;;;;;;16.73;8.33;;;4.60;91.60;;;;;;6247439;22;19996;-70
2021/04/08 06:53:22;;;;;;;16.60;8.63;;;4.70;90.30;;;;;;6247445;22;20448;-69
2021/04/08 06:55:49;;;;;;;21.97;9.10;;;4.70;90.10;;;;;;6247312;22;20002;-70
2021/04/08 06:58:16;;;;;;;21.57;9.50;;;4.80;91.20;;;;;;6246950;22;20267;-69
2021/04/08 07:00:42;;;;;;;17.33;9.20;;;5.00;91.50;;;;;;6246759;22;20054;-68
2021/04/08 07:03:09;;;;;;;14.00;8.73;;;5.20;90.20;;;;;;6247368;22;19992;-69
2021/04/08 07:05:36;;;;;;;15.87;7.73;;;5.20;88.80;;;;;;6247075;22;20008;-70
2021/04/08 07:08:01;;;;;;;13.43;7.03;;;5.30;84.90;;;;;;6247198;22;20417;-68
2021/04/08 07:10:27;;;;;;;8.43;4.87;;;5.40;86.60;;;;;;6245548;23;20004;-71
2021/04/08 07:12:54;;;;;;;11.73;5.43;;;5.50;78.30;;;;;;6245608;23;20326;-69
2021/04/08 07:15:22;;;;;;;14.77;7.90;;;5.50;75.90;;;;;;6247076;22;20004;-68
2021/04/08 07:17:49;;;;;;;10.18;5.88;;;5.70;79.60;;;;;;6247167;22;19997;-70
2021/04/08 07:20:16;;;;;;;14.88;6.43;;;;;;;;;;6246776;22;20317;-71
2021/04/08 07:22:42;;;;;;;14.43;5.93;;;5.90;82.10;;;;;;6245593;23;20028;-71
2021/04/08 07:25:19;;;;;;;10.88;5.20;;;6.00;75.80;;;;;;6246398;22;20063;-72
2021/04/08 07:27:45;;;;;;;12.15;6.25;;;6.00;73.80;;;;;;6247132;22;20049;-73
2021/04/08 07:30:12;;;;;;;17.52;7.43;;;6.10;76.20;;;;;;6247077;22;19997;-71
2021/04/08 07:32:40;;;;;;;12.30;6.20;;;6.20;75.40;;;;;;6246541;22;20500;-70
2021/04/08 07:35:12;;;;;;;11.60;5.72;;;6.30;76.00;;;;;;6247140;22;20054;-71
2021/04/08 07:37:38;;;;;;;9.98;5.40;;;6.50;81.60;;;;;;6246879;22;20000;-73
2021/04/08 07:40:16;;;;;;;19.75;7.07;;;6.50;73.80;;;;;;6245308;23;20000;-72
2021/04/08 07:42:42;;;;;;;13.63;6.28;;;6.50;74.90;;;;;;6245352;23;20023;-70
2021/04/08 07:45:09;;;;;;;15.82;8.15;;;6.60;75.50;;;;;;6245288;23;20008;-72
2021/04/08 07:47:40;;;;;;;14.32;7.22;;;7.00;74.00;;;;;;6246602;22;20388;-71
2021/04/08 07:50:06;;;;;;;14.05;7.72;;;7.00;72.90;;;;;;6246941;22;20000;-71
2021/04/08 07:52:36;;;;;;;16.80;9.10;;;7.10;72.80;;;;;;6246567;22;20071;-71
2021/04/08 07:55:06;;;;;;;15.38;7.03;;;7.30;75.60;;;;;;6245138;23;20012;-71
2021/04/08 07:57:49;;;;;;;11.05;6.22;;;7.40;69.90;;;;;;6242943;22;20008;-72
2021/04/08 08:00:33;;;;;;;13.98;6.70;;;7.60;70.40;;;;;;6245970;22;20046;-72
2021/04/08 08:03:04;;;;;;;17.10;7.95;;;7.60;66.70;;;;;;6246707;22;19996;-74
2021/04/08 08:05:38;;;;;;;15.45;7.47;;;7.70;71.30;;;;;;6245161;23;20008;-74
2021/04/08 08:08:18;;;;;;;16.73;7.45;;;8.00;70.90;;;;;;6244898;23;20000;-74
2021/04/08 08:10:58;;;;;;;10.02;5.80;;;8.00;72.70;;;;;;6245195;23;20004;-71
2021/04/08 08:13:27;;;;;;;10.85;6.53;;;8.10;66.10;;;;;;6246660;22;20004;-72
2021/04/08 08:15:55;;;;;;;11.43;6.35;;;8.10;66.50;;;;;;6246779;22;19996;-73
2021/04/08 08:18:28;;;;;;;12.45;6.15;;;8.40;67.80;;;;;;6246619;22;20356;-72
2021/04/08 08:21:10;;;;;;;12.52;6.22;;;8.50;65.30;;;;;;6245037;23;20007;-72
2021/04/08 08:23:37;;;;;;;17.02;7.78;;;8.60;65.60;;;;;;6244579;23;20429;-73
2021/04/08 08:26:35;;;;;;;18.23;7.85;;;8.80;66.50;;;;;;6246691;22;20023;-73
2021/04/08 08:29:17;;;;;;;18.85;10.13;;;8.80;65.80;;;;;;6246882;22;20004;-70
2021/04/08 08:32:00;;;;;;;17.77;8.48;;;9.10;65.30;;;;;;6247183;23;20416;-72
2021/04/08 08:34:36;;;;;;;11.60;6.78;;;9.20;65.60;;;;;;6245160;23;20004;-71
2021/04/08 08:37:04;;;;;;;10.35;6.10;;;9.40;67.30;;;;;;6246851;22;20035;-71
2021/04/08 08:39:32;;;;;;;11.00;6.63;;;9.50;61.90;;;;;;6246520;22;19996;-72
2021/04/08 08:42:00;;;;;;;10.40;6.18;;;9.30;62.30;;;;;;6244892;23;20004;-73
2021/04/08 08:44:26;;;;;;;12.55;6.60;;;9.30;63.30;;;;;;6244873;23;20437;-71
2021/04/08 08:47:06;;;;;;;9.10;5.50;;;9.60;66.10;;;;;;6245126;23;20096;-72
2021/04/08 08:49:41;;;;;;;8.45;5.30;;;9.90;57.00;;;;;;6246553;22;20071;-72
2021/04/08 08:52:10;;;;;;;9.98;5.38;;;9.80;55.80;;;;;;6246485;22;20004;-72
2021/04/08 08:54:37;;;;;;;9.40;5.30;;;10.00;60.00;;;;;;6246437;22;20076;-71
2021/04/08 08:57:05;;;;;;;8.75;5.07;;;10.10;57.70;;;;;;6246396;22;20000;-72
2021/04/08 08:59:31;;;;;;;10.13;5.25;;;10.20;58.30;;;;;;6246447;22;20038;-71
2021/04/08 09:01:58;;;;;;;7.35;4.30;;;10.40;56.20;;;;;;6245960;22;20000;-71
2021/04/08 09:04:24;;;;;;;18.48;9.65;;;10.30;53.70;;;;;;6246479;22;20000;-72
2021/04/08 09:06:52;;;;;;;9.70;4.50;;;10.50;54.10;;;;;;6246480;22;20011;-72
2021/04/08 09:09:21;;;;;;;9.60;5.25;;;10.60;50.80;;;;;;6245024;23;20391;-71
2021/04/08 09:11:47;;;;;;;8.48;5.18;;;10.80;56.30;;;;;;6246584;22;19996;-72
2021/04/08 09:14:13;;;;;;;8.05;4.30;;;10.70;56.40;;;;;;6246332;22;20004;-71
2021/04/08 09:16:54;;;;;;;5.75;4.40;;;10.90;53.20;;;;;;6244756;23;19997;-72
2021/04/08 09:19:31;;;;;;;10.40;5.45;;;11.00;53.80;;;;;;6244564;23;19996;-72
2021/04/08 09:22:01;;;;;;;7.80;3.00;;;11.00;55.70;;;;;;6246633;22;20078;-71
2021/04/08 09:24:38;;;;;;;8.45;4.93;;;11.00;47.30;;;;;;6246612;22;20023;-72
2021/04/08 09:27:09;;;;;;;5.95;3.72;;;11.20;47.90;;;;;;6246339;23;20028;-71
2021/04/08 09:29:39;;;;;;;5.60;3.50;;;11.20;48.50;;;;;;6247867;22;20073;-73
2021/04/08 09:32:24;;;;;;;7.43;4.18;;;;;;;;;;6247800;22;20479;-72
2021/04/08 09:35:08;;;;;;;15.32;4.43;;;11.80;48.30;;;;;;6248530;22;20012;-71
2021/04/08 09:37:46;;;;;;;4.13;2.42;;;12.00;48.00;;;;;;6248094;22;20000;-72
2021/04/08 09:40:22;;;;;;;6.13;3.60;;;11.40;47.90;;;;;;6246482;23;20061;-72
2021/04/08 09:43:00;;;;;;;4.45;2.90;;;11.60;49.50;;;;;;6246325;23;19997;-72
2021/04/08 09:45:27;;;;;;;2.83;2.40;;;11.70;47.20;;;;;;6246655;23;20013;-72
2021/04/08 09:48:15;;;;;;;6.90;2.60;;;11.90;47.10;;;;;;6246378;23;19996;-72
2021/04/08 09:50:45;;;;;;;5.88;2.67;;;12.10;45.70;;;;;;6247925;22;20004;-72
2021/04/08 09:53:12;;;;;;;5.30;2.55;;;11.80;48.00;;;;;;6246433;23;20031;-71
2021/04/08 09:55:39;;;;;;;4.10;2.42;;;11.70;47.40;;;;;;6248068;22;20071;-74
2021/04/08 09:58:06;;;;;;;4.30;2.90;;;12.00;47.60;;;;;;6247823;22;20069;-72
2021/04/08 10:00:33;;;;;;;6.00;3.15;;;12.30;46.60;;;;;;6247876;22;20007;-72
2021/04/08 10:03:04;;;;;;;6.65;2.65;;;12.50;50.40;;;;;;6244569;23;20050;-71
2021/04/08 10:05:35;;;;;;;5.40;2.22;;;12.70;44.30;;;;;;6247574;22;20004;-72
2021/04/08 10:08:01;;;;;;;6.10;2.10;;;12.80;46.40;;;;;;6246211;23;20004;-72
2021/04/08 10:10:36;;;;;;;3.55;2.20;;;12.50;42.20;;;;;;6247711;22;20007;-72
2021/04/08 10:13:26;;;;;;;4.82;2.63;;;12.90;46.90;;;;;;6247801;22;20000;-73
2021/04/08 10:15:54;;;;;;;2.35;1.90;;;12.40;44.10;;;;;;6247766;22;20004;-73
2021/04/08 10:18:21;;;;;;;7.60;4.90;;;12.30;44.60;;;;;;6247633;22;20000;-70
2021/04/08 10:20:50;;;;;;;2.65;2.03;;;13.20;45.50;;;;;;6247507;22;19996;-70
2021/04/08 10:23:36;;;;;;;4.95;2.42;;;13.50;42.30;;;;;;6247714;22;20000;-71
2021/04/08 10:26:08;;;;;;;3.65;2.30;;;13.30;42.20;;;;;;6246027;23;20504;-74
2021/04/08 10:28:41;;;;;;;4.80;2.25;;;13.60;40.40;;;;;;6246053;23;20421;-71
2021/04/08 10:31:21;;;;;;;4.80;2.70;;;13.10;44.00;;;;;;6247960;22;20020;-70
2021/04/08 10:34:01;;;;;;;31.13;5.22;;;13.70;44.30;;;;;;6247506;22;20031;-71
2021/04/08 10:36:38;;;;;;;4.93;2.20;;;14.70;38.70;;;;;;6247500;22;20003;-72
2021/04/08 10:39:18;;;;;;;6.75;3.72;;;13.50;38.00;;;;;;6247437;22;20028;-71
2021/04/08 10:42:11;;;;;;;9.18;6.18;;;13.50;39.80;;;;;;6247536;22;19996;-72
2021/04/08 10:44:39;;;;;;;29.92;18.85;;;13.20;39.90;;;;;;6245742;23;20004;-72
2021/04/08 10:47:11;;;;;;;5.50;2.65;;;12.90;39.50;;;;;;6247261;23;20330;-71
2021/04/08 10:49:50;;;;;;;6.03;4.15;;;12.30;39.30;;;;;;6247045;22;20325;-73
2021/04/08 10:52:19;;;;;;;3.28;2.20;;;11.80;41.60;;;;;;6245828;23;19996;-72
2021/04/08 10:54:46;;;;;;;7.85;3.53;;;;;;;;;;6247126;22;20004;-73
2021/04/08 10:57:14;;;;;;;6.32;2.60;;;13.00;41.50;;;;;;6246826;23;20318;-73
2021/04/08 10:59:41;;;;;;;6.78;3.83;;;;;;;;;;6247357;22;20000;-72
2021/04/08 11:02:28;;;;;;;5.25;2.47;;;12.40;41.30;;;;;;6247429;23;20001;-72
2021/04/08 11:04:58;;;;;;;4.15;3.13;;;12.50;40.80;;;;;;6246111;23;20008;-72
2021/04/08 11:07:25;;;;;;;4.65;2.55;;;12.20;41.60;;;;;;6245480;23;20046;-72
2021/04/08 11:09:52;;;;;;;9.70;5.75;;;12.20;42.80;;;;;;6247214;22;20007;-71
2021/04/08 11:12:24;;;;;;;11.43;5.05;;;12.60;41.40;;;;;;6247164;22;20023;-72
2021/04/08 11:15:02;;;;;;;9.25;5.30;;;12.70;41.20;;;;;;6247144;22;20008;-70
2021/04/08 11:17:29;;;;;;;6.90;3.35;;;15.70;35.90;;;;;;6245664;23;20008;-70
2021/04/08 11:19:57;;;;;;;3.67;2.70;;;17.40;34.60;;;;;;6243948;23;20038;-70
2021/04/08 11:22:29;;;;;;;8.82;3.53;;;19.00;31.70;;;;;;6244362;23;20000;-69
2021/04/08 11:24:56;;;;;;;2.97;2.10;;;19.00;30.30;;;;;;6245946;22;20432;-70
2021/04/08 11:27:26;;;;;;;13.73;6.40;;;17.40;30.50;;;;;;6245268;23;20429;-70
2021/04/08 11:29:52;;;;;;;33.42;15.57;;;15.90;33.70;;;;;;6245488;23;20023;-71
2021/04/08 11:32:18;;;;;;;10.20;3.72;;;15.30;34.90;;;;;;6246893;23;20294;-71
2021/04/08 11:34:53;;;;;;;4.50;2.65;;;14.30;35.80;;;;;;6246887;22;20008;-72
2021/04/08 11:37:39;;;;;;;5.65;2.78;;;13.10;37.50;;;;;;6246914;22;20000;-72
2021/04/08 11:40:08;;;;;;;3.85;2.47;;;12.50;40.00;;;;;;6245312;23;20001;-73
2021/04/08 11:42:39;;;;;;;13.27;5.00;;;13.10;41.60;;;;;;6245154;23;20034;-72
2021/04/08 11:45:24;;;;;;;11.50;4.43;;;14.10;36.90;;;;;;6246781;22;20000;-70
2021/04/08 11:48:00;;;;;;;89.88;39.60;;;14.80;37.80;;;;;;6246420;22;20028;-70
2021/04/08 11:50:32;;;;;;;9.65;5.13;;;16.80;33.20;;;;;;6246665;23;20050;-71
2021/04/08 11:53:19;;;;;;;12.23;6.57;;;17.30;32.90;;;;;;6246930;22;20001;-72
2021/04/08 11:55:47;;;;;;;8.32;4.43;;;16.70;30.60;;;;;;6244348;23;20332;-70
2021/04/08 11:58:24;;;;;;;7.05;4.25;;;;;;;;;;6244992;23;20008;-73
2021/04/08 12:00:50;;;;;;;7.72;4.18;;;20.50;28.80;;;;;;6245222;23;20325;-69
2021/04/08 12:03:20;;;;;;;4.20;2.20;;;19.40;29.80;;;;;;6246711;22;20473;-71
2021/04/08 12:05:46;;;;;;;4.47;2.85;;;16.90;32.20;;;;;;6246591;22;20058;-71
2021/04/08 12:08:13;;;;;;;71.80;31.70;;;14.80;33.60;;;;;;6246570;22;20003;-73
2021/04/08 12:10:39;;;;;;;37.60;15.95;;;14.20;37.40;;;;;;6245003;23;20084;-75
2021/04/08 12:13:08;;;;;;;8.45;3.88;;;13.50;37.40;;;;;;6246556;23;20023;-72
2021/04/08 12:15:46;;;;;;;18.67;8.20;;;17.60;31.80;;;;;;6244732;23;20010;-72
2021/04/08 12:18:24;;;;;;;6.13;3.20;;;19.40;29.30;;;;;;6244775;23;20007;-70
2021/04/08 12:20:52;;;;;;;76.25;30.80;;;19.70;28.60;;;;;;6246405;22;20034;-69
2021/04/08 12:23:22;;;;;;;3.80;2.63;;;17.10;31.90;;;;;;6246354;23;19992;-71
2021/04/08 12:25:53;;;;;;;3.28;2.00;;;16.20;31.90;;;;;;6246502;22;20036;-70
2021/04/08 12:28:21;;;;;;;3.47;2.03;;;14.60;32.70;;;;;;6246771;22;20313;-72
2021/04/08 12:30:56;;;;;;;7.10;3.60;;;13.90;35.80;;;;;;6244895;23;20007;-72
2021/04/08 12:33:24;;;;;;;12.90;6.55;;;13.90;34.60;;;;;;6244337;23;20054;-73
2021/04/08 12:35:50;;;;;;;6.03;2.65;;;13.90;34.90;;;;;;6244171;23;20117;-72
2021/04/08 12:38:16;;;;;;;16.02;3.85;;;14.00;37.30;;;;;;6244803;23;20027;-71
2021/04/08 12:40:43;;;;;;;7.43;3.38;;;18.00;31.70;;;;;;6246269;22;19996;-71
2021/04/08 12:43:09;;;;;;;6.07;3.47;;;19.50;30.90;;;;;;6246438;22;20072;-70
2021/04/08 12:45:36;;;;;;;9.90;4.53;;;;;;;;;;6246247;22;20031;-70
2021/04/08 12:48:01;;;;;;;5.65;4.03;;;15.70;32.70;;;;;;6246272;23;20085;-71
2021/04/08 12:50:28;;;;;;;7.20;3.42;;;14.10;36.90;;;;;;6245863;22;19992;-70
2021/04/08 12:52:54;;;;;;;3.88;2.47;;;13.10;40.00;;;;;;6244945;23;20361;-71
2021/04/08 12:55:23;;;;;;;6.03;3.17;;;12.40;39.10;;;;;;6244692;23;20333;-71
2021/04/08 12:57:48;;;;;;;7.47;2.67;;;12.20;40.00;;;;;;6244970;23;20364;-70
2021/04/08 13:00:15;;;;;;;4.50;2.95;;;;;;;;;;6246050;23;20093;-71